sensor_id;sensor_type;location;lat;lon;timestamp;temperature;humidity
22674;DHT22;11504;43.334;21.918;2023-12-28T00:00:18;6.3;100.0
22674;DHT22;11504;43.334;21.918;2023-12-28T00:04:55;6.2;100.0
22674;DHT22;11504;43.334;21.918;2023-12-28T00:09:31;6.2;100.0
22674;DHT22;11504;43.334;21.918;2023-12-28T00:14:07;6.2;100.0
22674;DHT22;11504;43.334;21.918;2023-12-28T00:18:44;6.1;100.0
22674;DHT22;11504;43.334;21.918;2023-12-28T00:23:20;6.1;100.0
22674;DHT22;11504;43.334;21.918;2023-12-28T00:27:56;6.0;100.0
22674;DHT22;11504;43.334;21.918;2023-12-28T00:32:33;6.0;100.0
22674;DHT22;11504;43.334;21.918;2023-12-28T00:37:09;6.0;100.0
22674;DHT22;11504;43.334;21.918;2023-12-28T00:41:46;6.0;100.0
22674;DHT22;11504;43.334;21.918;2023-12-28T00:46:22;6.0;100.0
22674;DHT22;11504;43.334;21.918;2023-12-28T00:50:58;6.0;100.0
22674;DHT22;11504;43.334;21.918;2023-12-28T00:55:35;6.0;100.0
22674;DHT22;11504;43.334;21.918;2023-12-28T01:00:12;6.0;100.0
22674;DHT22;11504;43.334;21.918;2023-12-28T01:04:49;6.0;100.0
22674;DHT22;11504;43.334;21.918;2023-12-28T01:09:25;6.0;100.0
22674;DHT22;11504;43.334;21.918;2023-12-28T01:14:01;6.0;100.0
22674;DHT22;11504;43.334;21.918;2023-12-28T01:18:38;6.1;100.0
22674;DHT22;11504;43.334;21.918;2023-12-28T01:23:14;6.1;100.0
22674;DHT22;11504;43.334;21.918;2023-12-28T01:27:50;6.1;100.0
22674;DHT22;11504;43.334;21.918;2023-12-28T01:32:26;6.1;100.0
22674;DHT22;11504;43.334;21.918;2023-12-28T01:37:03;6.1;100.0
22674;DHT22;11504;43.334;21.918;2023-12-28T01:41:39;6.1;100.0
22674;DHT22;11504;43.334;21.918;2023-12-28T01:46:17;5.9;100.0
22674;DHT22;11504;43.334;21.918;2023-12-28T01:50:58;5.9;100.0
22674;DHT22;11504;43.334;21.918;2023-12-28T01:55:36;5.7;100.0
22674;DHT22;11504;43.334;21.918;2023-12-28T02:00:13;5.7;100.0
22674;DHT22;11504;43.334;21.918;2023-12-28T02:04:51;5.7;100.0
22674;DHT22;11504;43.334;21.918;2023-12-28T02:09:29;5.7;100.0
22674;DHT22;11504;43.334;21.918;2023-12-28T02:14:05;5.7;100.0
22674;DHT22;11504;43.334;21.918;2023-12-28T02:18:43;5.7;100.0
22674;DHT22;11504;43.334;21.918;2023-12-28T02:23:32;5.7;100.0
22674;DHT22;11504;43.334;21.918;2023-12-28T02:28:09;5.6;100.0
22674;DHT22;11504;43.334;21.918;2023-12-28T02:32:54;5.6;100.0
22674;DHT22;11504;43.334;21.918;2023-12-28T02:37:56;5.6;100.0
22674;DHT22;11504;43.334;21.918;2023-12-28T02:42:44;5.6;100.0
22674;DHT22;11504;43.334;21.918;2023-12-28T02:47:20;5.5;100.0
22674;DHT22;11504;43.334;21.918;2023-12-28T02:51:56;5.5;100.0
22674;DHT22;11504;43.334;21.918;2023-12-28T02:56:33;5.4;100.0
22674;DHT22;11504;43.334;21.918;2023-12-28T03:01:09;5.4;100.0
22674;DHT22;11504;43.334;21.918;2023-12-28T03:05:45;5.3;100.0
22674;DHT22;11504;43.334;21.918;2023-12-28T03:10:22;5.3;100.0
22674;DHT22;11504;43.334;21.918;2023-12-28T03:14:58;5.2;100.0
22674;DHT22;11504;43.334;21.918;2023-12-28T03:19:36;5.2;100.0
22674;DHT22;11504;43.334;21.918;2023-12-28T03:24:12;5.2;100.0
22674;DHT22;11504;43.334;21.918;2023-12-28T03:28:48;5.2;100.0
22674;DHT22;11504;43.334;21.918;2023-12-28T03:33:25;5.2;100.0
22674;DHT22;11504;43.334;21.918;2023-12-28T03:38:01;5.1;100.0
22674;DHT22;11504;43.334;21.918;2023-12-28T03:42:38;5.1;100.0
22674;DHT22;11504;43.334;21.918;2023-12-28T03:47:15;5.1;100.0
22674;DHT22;11504;43.334;21.918;2023-12-28T03:51:51;5.1;100.0
22674;DHT22;11504;43.334;21.918;2023-12-28T03:56:28;5.1;100.0
22674;DHT22;11504;43.334;21.918;2023-12-28T04:01:04;5.1;100.0
22674;DHT22;11504;43.334;21.918;2023-12-28T04:05:40;5.1;100.0
22674;DHT22;11504;43.334;21.918;2023-12-28T04:10:29;5.1;100.0
22674;DHT22;11504;43.334;21.918;2023-12-28T04:15:09;5.1;100.0
22674;DHT22;11504;43.334;21.918;2023-12-28T04:19:45;5.1;100.0
22674;DHT22;11504;43.334;21.918;2023-12-28T04:24:21;5.1;100.0
22674;DHT22;11504;43.334;21.918;2023-12-28T04:28:59;5.1;100.0
22674;DHT22;11504;43.334;21.918;2023-12-28T04:33:35;5.1;100.0
22674;DHT22;11504;43.334;21.918;2023-12-28T04:38:11;5.1;100.0
22674;DHT22;11504;43.334;21.918;2023-12-28T04:42:48;5.1;100.0
22674;DHT22;11504;43.334;21.918;2023-12-28T04:47:25;5.0;100.0
22674;DHT22;11504;43.334;21.918;2023-12-28T04:52:01;5.0;100.0
22674;DHT22;11504;43.334;21.918;2023-12-28T04:56:39;5.0;100.0
22674;DHT22;11504;43.334;21.918;2023-12-28T05:01:16;5.0;100.0
22674;DHT22;11504;43.334;21.918;2023-12-28T05:05:52;4.8;100.0
22674;DHT22;11504;43.334;21.918;2023-12-28T05:10:28;4.8;100.0
22674;DHT22;11504;43.334;21.918;2023-12-28T05:15:05;4.6;100.0
22674;DHT22;11504;43.334;21.918;2023-12-28T05:19:43;4.6;100.0
22674;DHT22;11504;43.334;21.918;2023-12-28T05:24:19;4.6;100.0
22674;DHT22;11504;43.334;21.918;2023-12-28T05:28:55;4.6;100.0
22674;DHT22;11504;43.334;21.918;2023-12-28T05:33:31;4.6;100.0
22674;DHT22;11504;43.334;21.918;2023-12-28T05:38:07;4.6;100.0
22674;DHT22;11504;43.334;21.918;2023-12-28T05:42:44;4.6;100.0
22674;DHT22;11504;43.334;21.918;2023-12-28T05:47:20;4.6;100.0
22674;DHT22;11504;43.334;21.918;2023-12-28T05:51:56;4.6;100.0
22674;DHT22;11504;43.334;21.918;2023-12-28T05:56:33;4.6;100.0
22674;DHT22;11504;43.334;21.918;2023-12-28T06:01:10;4.6;100.0
22674;DHT22;11504;43.334;21.918;2023-12-28T06:05:46;4.6;100.0
22674;DHT22;11504;43.334;21.918;2023-12-28T06:10:22;4.6;100.0
22674;DHT22;11504;43.334;21.918;2023-12-28T06:14:59;4.6;100.0
22674;DHT22;11504;43.334;21.918;2023-12-28T06:19:35;4.6;100.0
22674;DHT22;11504;43.334;21.918;2023-12-28T06:24:11;4.6;100.0
22674;DHT22;11504;43.334;21.918;2023-12-28T06:28:47;4.8;100.0
22674;DHT22;11504;43.334;21.918;2023-12-28T06:33:24;4.8;100.0
22674;DHT22;11504;43.334;21.918;2023-12-28T06:38:00;4.9;100.0
22674;DHT22;11504;43.334;21.918;2023-12-28T06:42:36;4.9;100.0
22674;DHT22;11504;43.334;21.918;2023-12-28T06:47:12;5.8;100.0
22674;DHT22;11504;43.334;21.918;2023-12-28T06:51:48;5.8;100.0
22674;DHT22;11504;43.334;21.918;2023-12-28T06:56:24;6.7;100.0
22674;DHT22;11504;43.334;21.918;2023-12-28T07:01:02;6.7;100.0
22674;DHT22;11504;43.334;21.918;2023-12-28T07:05:40;8.2;100.0
22674;DHT22;11504;43.334;21.918;2023-12-28T07:10:16;8.2;100.0
22674;DHT22;11504;43.334;21.918;2023-12-28T07:14:53;9.8;100.0
22674;DHT22;11504;43.334;21.918;2023-12-28T07:19:29;9.8;100.0
22674;DHT22;11504;43.334;21.918;2023-12-28T07:24:05;9.8;100.0
22674;DHT22;11504;43.334;21.918;2023-12-28T07:28:42;11.2;100.0
22674;DHT22;11504;43.334;21.918;2023-12-28T07:33:19;11.2;100.0
22674;DHT22;11504;43.334;21.918;2023-12-28T07:37:56;12.7;100.0
22674;DHT22;11504;43.334;21.918;2023-12-28T07:42:32;12.7;100.0
22674;DHT22;11504;43.334;21.918;2023-12-28T07:47:08;13.6;100.0
22674;DHT22;11504;43.334;21.918;2023-12-28T07:51:44;13.6;100.0
22674;DHT22;11504;43.334;21.918;2023-12-28T07:56:20;14.5;100.0
22674;DHT22;11504;43.334;21.918;2023-12-28T08:00:56;14.5;100.0
22674;DHT22;11504;43.334;21.918;2023-12-28T08:05:31;15.2;100.0
22674;DHT22;11504;43.334;21.918;2023-12-28T08:10:08;15.2;100.0
22674;DHT22;11504;43.334;21.918;2023-12-28T08:14:45;15.2;100.0
22674;DHT22;11504;43.334;21.918;2023-12-28T08:19:21;15.8;100.0
22674;DHT22;11504;43.334;21.918;2023-12-28T08:23:57;15.8;100.0
22674;DHT22;11504;43.334;21.918;2023-12-28T08:28:33;16.5;100.0
22674;DHT22;11504;43.334;21.918;2023-12-28T08:33:09;16.5;100.0
22674;DHT22;11504;43.334;21.918;2023-12-28T08:37:46;17.2;100.0
22674;DHT22;11504;43.334;21.918;2023-12-28T08:42:23;17.2;100.0
22674;DHT22;11504;43.334;21.918;2023-12-28T08:46:59;17.8;100.0
22674;DHT22;11504;43.334;21.918;2023-12-28T08:51:35;17.8;100.0
22674;DHT22;11504;43.334;21.918;2023-12-28T08:56:16;18.3;100.0
22674;DHT22;11504;43.334;21.918;2023-12-28T09:00:57;18.3;100.0
22674;DHT22;11504;43.334;21.918;2023-12-28T09:05:34;18.4;100.0
22674;DHT22;11504;43.334;21.918;2023-12-28T09:10:10;18.4;100.0
22674;DHT22;11504;43.334;21.918;2023-12-28T09:14:47;18.4;100.0
22674;DHT22;11504;43.334;21.918;2023-12-28T09:19:23;18.4;100.0
22674;DHT22;11504;43.334;21.918;2023-12-28T09:23:59;18.4;100.0
22674;DHT22;11504;43.334;21.918;2023-12-28T09:28:35;18.3;100.0
22674;DHT22;11504;43.334;21.918;2023-12-28T09:33:11;18.3;100.0
22674;DHT22;11504;43.334;21.918;2023-12-28T09:37:47;18.2;100.0
22674;DHT22;11504;43.334;21.918;2023-12-28T09:42:25;18.2;100.0
22674;DHT22;11504;43.334;21.918;2023-12-28T09:47:23;18.6;100.0
22674;DHT22;11504;43.334;21.918;2023-12-28T09:52:00;18.6;100.0
22674;DHT22;11504;43.334;21.918;2023-12-28T09:56:37;19.1;100.0
22674;DHT22;11504;43.334;21.918;2023-12-28T10:01:17;19.1;100.0
22674;DHT22;11504;43.334;21.918;2023-12-28T10:05:56;19.2;100.0
22674;DHT22;11504;43.334;21.918;2023-12-28T10:10:32;19.2;100.0
22674;DHT22;11504;43.334;21.918;2023-12-28T10:15:09;19.2;100.0
22674;DHT22;11504;43.334;21.918;2023-12-28T10:19:49;19.2;100.0
22674;DHT22;11504;43.334;21.918;2023-12-28T10:24:25;19.2;100.0
22674;DHT22;11504;43.334;21.918;2023-12-28T10:29:01;19.1;100.0
22674;DHT22;11504;43.334;21.918;2023-12-28T10:33:38;19.1;100.0
22674;DHT22;11504;43.334;21.918;2023-12-28T10:38:15;19.0;100.0
22674;DHT22;11504;43.334;21.918;2023-12-28T10:42:57;19.0;100.0
22674;DHT22;11504;43.334;21.918;2023-12-28T10:47:37;18.6;100.0
22674;DHT22;11504;43.334;21.918;2023-12-28T10:52:29;18.6;100.0
22674;DHT22;11504;43.334;21.918;2023-12-28T10:57:09;18.2;100.0
22674;DHT22;11504;43.334;21.918;2023-12-28T11:02:05;18.2;100.0
22674;DHT22;11504;43.334;21.918;2023-12-28T11:06:54;17.8;100.0
22674;DHT22;11504;43.334;21.918;2023-12-28T11:11:37;17.8;100.0
22674;DHT22;11504;43.334;21.918;2023-12-28T11:16:16;17.3;100.0
22674;DHT22;11504;43.334;21.918;2023-12-28T11:20:55;17.3;100.0
22674;DHT22;11504;43.334;21.918;2023-12-28T11:25:33;17.2;100.0
22674;DHT22;11504;43.334;21.918;2023-12-28T11:30:10;17.2;100.0
22674;DHT22;11504;43.334;21.918;2023-12-28T11:34:56;17.2;100.0
22674;DHT22;11504;43.334;21.918;2023-12-28T11:39:35;17.0;100.0
22674;DHT22;11504;43.334;21.918;2023-12-28T11:44:12;17.0;100.0
22674;DHT22;11504;43.334;21.918;2023-12-28T11:48:48;16.8;100.0
22674;DHT22;11504;43.334;21.918;2023-12-28T11:53:25;16.8;100.0
22674;DHT22;11504;43.334;21.918;2023-12-28T11:58:02;16.6;100.0
22674;DHT22;11504;43.334;21.918;2023-12-28T12:02:43;16.6;100.0
22674;DHT22;11504;43.334;21.918;2023-12-28T12:07:19;16.6;100.0
22674;DHT22;11504;43.334;21.918;2023-12-28T12:11:55;16.6;100.0
22674;DHT22;11504;43.334;21.918;2023-12-28T12:16:34;16.6;100.0
22674;DHT22;11504;43.334;21.918;2023-12-28T12:21:17;16.6;100.0
22674;DHT22;11504;43.334;21.918;2023-12-28T12:25:54;16.8;100.0
22674;DHT22;11504;43.334;21.918;2023-12-28T12:30:30;16.8;100.0
22674;DHT22;11504;43.334;21.918;2023-12-28T12:35:06;17.0;100.0
22674;DHT22;11504;43.334;21.918;2023-12-28T12:39:45;17.0;100.0
22674;DHT22;11504;43.334;21.918;2023-12-28T12:44:22;17.0;100.0
22674;DHT22;11504;43.334;21.918;2023-12-28T12:49:00;17.0;100.0
22674;DHT22;11504;43.334;21.918;2023-12-28T12:53:37;17.0;100.0
22674;DHT22;11504;43.334;21.918;2023-12-28T12:58:13;17.1;100.0
22674;DHT22;11504;43.334;21.918;2023-12-28T13:02:50;17.1;100.0
22674;DHT22;11504;43.334;21.918;2023-12-28T13:07:26;17.2;100.0
22674;DHT22;11504;43.334;21.918;2023-12-28T13:12:02;17.2;100.0
22674;DHT22;11504;43.334;21.918;2023-12-28T13:16:40;17.2;100.0
22674;DHT22;11504;43.334;21.918;2023-12-28T13:21:16;17.2;100.0
22674;DHT22;11504;43.334;21.918;2023-12-28T13:25:52;17.4;100.0
22674;DHT22;11504;43.334;21.918;2023-12-28T13:30:27;17.4;100.0
22674;DHT22;11504;43.334;21.918;2023-12-28T13:35:04;17.4;100.0
22674;DHT22;11504;43.334;21.918;2023-12-28T13:39:42;17.5;100.0
22674;DHT22;11504;43.334;21.918;2023-12-28T13:44:18;17.5;100.0
22674;DHT22;11504;43.334;21.918;2023-12-28T13:48:54;17.5;100.0
22674;DHT22;11504;43.334;21.918;2023-12-28T13:53:30;17.5;100.0
22674;DHT22;11504;43.334;21.918;2023-12-28T13:58:07;17.5;100.0
22674;DHT22;11504;43.334;21.918;2023-12-28T14:02:43;17.5;100.0
22674;DHT22;11504;43.334;21.918;2023-12-28T14:07:19;17.6;100.0
22674;DHT22;11504;43.334;21.918;2023-12-28T14:11:55;17.6;100.0
22674;DHT22;11504;43.334;21.918;2023-12-28T14:16:31;17.6;100.0
22674;DHT22;11504;43.334;21.918;2023-12-28T14:21:08;17.6;100.0
22674;DHT22;11504;43.334;21.918;2023-12-28T14:25:46;17.5;100.0
22674;DHT22;11504;43.334;21.918;2023-12-28T14:30:23;17.5;100.0
22674;DHT22;11504;43.334;21.918;2023-12-28T14:35:01;17.5;100.0
22674;DHT22;11504;43.334;21.918;2023-12-28T14:39:39;17.4;100.0
22674;DHT22;11504;43.334;21.918;2023-12-28T14:44:15;17.4;100.0
22674;DHT22;11504;43.334;21.918;2023-12-28T14:48:51;17.2;100.0
22674;DHT22;11504;43.334;21.918;2023-12-28T14:53:28;17.2;100.0
22674;DHT22;11504;43.334;21.918;2023-12-28T14:58:04;17.1;100.0
22674;DHT22;11504;43.334;21.918;2023-12-28T15:02:40;17.1;100.0
22674;DHT22;11504;43.334;21.918;2023-12-28T15:07:16;16.8;100.0
22674;DHT22;11504;43.334;21.918;2023-12-28T15:11:52;16.8;100.0
22674;DHT22;11504;43.334;21.918;2023-12-28T15:16:30;16.6;100.0
22674;DHT22;11504;43.334;21.918;2023-12-28T15:21:09;16.6;100.0
22674;DHT22;11504;43.334;21.918;2023-12-28T15:25:47;16.4;100.0
22674;DHT22;11504;43.334;21.918;2023-12-28T15:30:24;16.4;100.0
22674;DHT22;11504;43.334;21.918;2023-12-28T15:35:01;16.4;100.0
22674;DHT22;11504;43.334;21.918;2023-12-28T15:39:38;16.1;100.0
22674;DHT22;11504;43.334;21.918;2023-12-28T15:44:15;16.1;100.0
22674;DHT22;11504;43.334;21.918;2023-12-28T15:48:51;15.8;100.0
22674;DHT22;11504;43.334;21.918;2023-12-28T15:53:27;15.8;100.0
22674;DHT22;11504;43.334;21.918;2023-12-28T15:58:03;15.6;100.0
22674;DHT22;11504;43.334;21.918;2023-12-28T16:02:39;15.6;100.0
22674;DHT22;11504;43.334;21.918;2023-12-28T16:07:15;15.2;100.0
22674;DHT22;11504;43.334;21.918;2023-12-28T16:11:51;15.2;100.0
22674;DHT22;11504;43.334;21.918;2023-12-28T16:16:27;14.8;100.0
22674;DHT22;11504;43.334;21.918;2023-12-28T16:21:07;14.8;100.0
22674;DHT22;11504;43.334;21.918;2023-12-28T16:25:47;14.4;100.0
22674;DHT22;11504;43.334;21.918;2023-12-28T16:30:24;14.4;100.0
22674;DHT22;11504;43.334;21.918;2023-12-28T16:35:00;14.4;100.0
22674;DHT22;11504;43.334;21.918;2023-12-28T16:39:36;13.9;100.0
22674;DHT22;11504;43.334;21.918;2023-12-28T16:44:12;13.9;100.0
22674;DHT22;11504;43.334;21.918;2023-12-28T16:48:48;14.0;100.0
22674;DHT22;11504;43.334;21.918;2023-12-28T16:53:24;14.0;100.0
22674;DHT22;11504;43.334;21.918;2023-12-28T16:58:01;14.0;100.0
22674;DHT22;11504;43.334;21.918;2023-12-28T17:02:37;14.0;100.0
22674;DHT22;11504;43.334;21.918;2023-12-28T17:07:13;14.2;100.0
22674;DHT22;11504;43.334;21.918;2023-12-28T17:11:54;14.2;100.0
22674;DHT22;11504;43.334;21.918;2023-12-28T17:16:49;14.3;100.0
22674;DHT22;11504;43.334;21.918;2023-12-28T17:21:30;14.3;100.0
22674;DHT22;11504;43.334;21.918;2023-12-28T17:26:20;14.2;100.0
22674;DHT22;11504;43.334;21.918;2023-12-28T17:31:03;14.2;100.0
22674;DHT22;11504;43.334;21.918;2023-12-28T17:35:47;14.1;100.0
22674;DHT22;11504;43.334;21.918;2023-12-28T17:40:25;14.1;100.0
22674;DHT22;11504;43.334;21.918;2023-12-28T17:45:05;14.1;100.0
22674;DHT22;11504;43.334;21.918;2023-12-28T17:49:55;13.8;100.0
22674;DHT22;11504;43.334;21.918;2023-12-28T17:54:36;13.8;100.0
22674;DHT22;11504;43.334;21.918;2023-12-28T17:59:12;13.5;100.0
22674;DHT22;11504;43.334;21.918;2023-12-28T18:03:49;13.5;100.0
22674;DHT22;11504;43.334;21.918;2023-12-28T18:08:25;13.1;100.0
22674;DHT22;11504;43.334;21.918;2023-12-28T18:13:01;13.1;100.0
22674;DHT22;11504;43.334;21.918;2023-12-28T18:17:37;12.7;100.0
22674;DHT22;11504;43.334;21.918;2023-12-28T18:22:13;12.7;100.0
22674;DHT22;11504;43.334;21.918;2023-12-28T18:26:49;12.5;100.0
22674;DHT22;11504;43.334;21.918;2023-12-28T18:31:25;12.5;100.0
22674;DHT22;11504;43.334;21.918;2023-12-28T18:36:01;12.3;100.0
22674;DHT22;11504;43.334;21.918;2023-12-28T18:40:38;12.3;100.0
22674;DHT22;11504;43.334;21.918;2023-12-28T18:45:14;12.3;100.0
22674;DHT22;11504;43.334;21.918;2023-12-28T18:49:50;12.0;100.0
22674;DHT22;11504;43.334;21.918;2023-12-28T18:54:26;12.0;100.0
22674;DHT22;11504;43.334;21.918;2023-12-28T18:59:02;11.8;100.0
22674;DHT22;11504;43.334;21.918;2023-12-28T19:03:38;11.8;100.0
22674;DHT22;11504;43.334;21.918;2023-12-28T19:08:14;11.5;100.0
22674;DHT22;11504;43.334;21.918;2023-12-28T19:12:50;11.5;100.0
22674;DHT22;11504;43.334;21.918;2023-12-28T19:17:26;11.2;100.0
22674;DHT22;11504;43.334;21.918;2023-12-28T19:22:03;11.2;100.0
22674;DHT22;11504;43.334;21.918;2023-12-28T19:26:39;11.0;100.0
22674;DHT22;11504;43.334;21.918;2023-12-28T19:31:16;11.0;100.0
22674;DHT22;11504;43.334;21.918;2023-12-28T19:35:53;10.8;100.0
22674;DHT22;11504;43.334;21.918;2023-12-28T19:40:29;10.8;100.0
22674;DHT22;11504;43.334;21.918;2023-12-28T19:45:06;10.8;100.0
22674;DHT22;11504;43.334;21.918;2023-12-28T19:49:44;10.6;100.0
22674;DHT22;11504;43.334;21.918;2023-12-28T19:54:20;10.6;100.0
22674;DHT22;11504;43.334;21.918;2023-12-28T19:58:56;10.4;100.0
22674;DHT22;11504;43.334;21.918;2023-12-28T20:03:32;10.4;100.0
22674;DHT22;11504;43.334;21.918;2023-12-28T20:08:08;10.4;100.0
22674;DHT22;11504;43.334;21.918;2023-12-28T20:12:44;10.4;100.0
22674;DHT22;11504;43.334;21.918;2023-12-28T20:17:21;10.4;100.0
22674;DHT22;11504;43.334;21.918;2023-12-28T20:21:57;10.4;100.0
22674;DHT22;11504;43.334;21.918;2023-12-28T20:26:33;10.4;100.0
22674;DHT22;11504;43.334;21.918;2023-12-28T20:31:15;10.4;100.0
22674;DHT22;11504;43.334;21.918;2023-12-28T20:35:52;10.5;100.0
22674;DHT22;11504;43.334;21.918;2023-12-28T20:40:28;10.5;100.0
22674;DHT22;11504;43.334;21.918;2023-12-28T20:45:05;10.5;100.0
22674;DHT22;11504;43.334;21.918;2023-12-28T20:49:44;10.3;100.0
22674;DHT22;11504;43.334;21.918;2023-12-28T20:54:21;10.3;100.0
22674;DHT22;11504;43.334;21.918;2023-12-28T20:58:57;10.1;100.0
22674;DHT22;11504;43.334;21.918;2023-12-28T21:03:33;10.1;100.0
22674;DHT22;11504;43.334;21.918;2023-12-28T21:08:09;9.8;100.0
22674;DHT22;11504;43.334;21.918;2023-12-28T21:12:46;9.8;100.0
22674;DHT22;11504;43.334;21.918;2023-12-28T21:17:22;9.6;100.0
22674;DHT22;11504;43.334;21.918;2023-12-28T21:21:58;9.6;100.0
22674;DHT22;11504;43.334;21.918;2023-12-28T21:26:34;9.4;100.0
22674;DHT22;11504;43.334;21.918;2023-12-28T21:31:10;9.4;100.0
22674;DHT22;11504;43.334;21.918;2023-12-28T21:35:47;9.2;100.0
22674;DHT22;11504;43.334;21.918;2023-12-28T21:40:23;9.2;100.0
22674;DHT22;11504;43.334;21.918;2023-12-28T21:44:59;9.2;100.0
22674;DHT22;11504;43.334;21.918;2023-12-28T21:49:36;9.2;100.0
22674;DHT22;11504;43.334;21.918;2023-12-28T21:54:12;9.2;100.0
22674;DHT22;11504;43.334;21.918;2023-12-28T21:58:49;9.3;100.0
22674;DHT22;11504;43.334;21.918;2023-12-28T22:03:25;9.3;100.0
22674;DHT22;11504;43.334;21.918;2023-12-28T22:08:01;9.3;100.0
22674;DHT22;11504;43.334;21.918;2023-12-28T22:12:39;9.3;100.0
22674;DHT22;11504;43.334;21.918;2023-12-28T22:17:16;9.3;100.0
22674;DHT22;11504;43.334;21.918;2023-12-28T22:21:52;9.3;100.0
22674;DHT22;11504;43.334;21.918;2023-12-28T22:26:29;9.0;100.0
22674;DHT22;11504;43.334;21.918;2023-12-28T22:31:05;9.0;100.0
22674;DHT22;11504;43.334;21.918;2023-12-28T22:35:41;8.8;100.0
22674;DHT22;11504;43.334;21.918;2023-12-28T22:40:17;8.8;100.0
22674;DHT22;11504;43.334;21.918;2023-12-28T22:44:54;8.8;100.0
22674;DHT22;11504;43.334;21.918;2023-12-28T22:49:30;8.6;100.0
22674;DHT22;11504;43.334;21.918;2023-12-28T22:54:06;8.6;100.0
22674;DHT22;11504;43.334;21.918;2023-12-28T22:58:43;8.5;100.0
22674;DHT22;11504;43.334;21.918;2023-12-28T23:03:19;8.5;100.0
22674;DHT22;11504;43.334;21.918;2023-12-28T23:07:56;8.4;100.0
22674;DHT22;11504;43.334;21.918;2023-12-28T23:12:32;8.4;100.0
22674;DHT22;11504;43.334;21.918;2023-12-28T23:17:08;8.2;100.0
22674;DHT22;11504;43.334;21.918;2023-12-28T23:21:45;8.2;100.0
22674;DHT22;11504;43.334;21.918;2023-12-28T23:26:21;8.2;100.0
22674;DHT22;11504;43.334;21.918;2023-12-28T23:30:58;8.2;100.0
22674;DHT22;11504;43.334;21.918;2023-12-28T23:35:34;8.2;100.0
22674;DHT22;11504;43.334;21.918;2023-12-28T23:49:25;8.0;100.0
22674;DHT22;11504;43.334;21.918;2023-12-28T23:54:01;8.0;100.0
22674;DHT22;11504;43.334;21.918;2023-12-28T23:58:37;8.0;100.0
